sensor_id;sensor_type;location;lat;lon;timestamp;P1;durP1;ratioP1;P2;durP2;ratioP2
20525;SDS011;10421;49.142;9.232;2022-10-03T00:00:37;14.27;;;7.47;;
20525;SDS011;10421;49.142;9.232;2022-10-03T00:03:18;13.20;;;7.53;;
20525;SDS011;10421;49.142;9.232;2022-10-03T00:06:02;18.67;;;8.03;;
20525;SDS011;10421;49.142;9.232;2022-10-03T00:08:41;14.23;;;7.33;;
20525;SDS011;10421;49.142;9.232;2022-10-03T00:11:25;12.87;;;7.00;;
20525;SDS011;10421;49.142;9.232;2022-10-03T00:14:00;14.90;;;6.63;;
20525;SDS011;10421;49.142;9.232;2022-10-03T00:16:35;13.27;;;7.27;;
20525;SDS011;10421;49.142;9.232;2022-10-03T00:19:13;13.47;;;7.47;;
20525;SDS011;10421;49.142;9.232;2022-10-03T00:21:59;15.50;;;7.70;;
20525;SDS011;10421;49.142;9.232;2022-10-03T00:24:39;12.03;;;7.13;;
20525;SDS011;10421;49.142;9.232;2022-10-03T00:27:13;15.40;;;8.33;;
20525;SDS011;10421;49.142;9.232;2022-10-03T00:29:58;18.40;;;8.93;;
20525;SDS011;10421;49.142;9.232;2022-10-03T00:32:44;13.57;;;7.90;;
20525;SDS011;10421;49.142;9.232;2022-10-03T00:35:43;13.43;;;6.93;;
20525;SDS011;10421;49.142;9.232;2022-10-03T00:41:17;16.20;;;7.10;;
20525;SDS011;10421;49.142;9.232;2022-10-03T00:47:19;12.53;;;7.67;;
20525;SDS011;10421;49.142;9.232;2022-10-03T00:50:06;10.70;;;6.70;;
20525;SDS011;10421;49.142;9.232;2022-10-03T00:53:06;13.70;;;7.90;;
20525;SDS011;10421;49.142;9.232;2022-10-03T00:58:52;14.13;;;6.73;;
20525;SDS011;10421;49.142;9.232;2022-10-03T01:01:30;11.83;;;6.93;;
20525;SDS011;10421;49.142;9.232;2022-10-03T01:04:05;14.67;;;6.90;;
20525;SDS011;10421;49.142;9.232;2022-10-03T01:06:41;13.80;;;7.20;;
20525;SDS011;10421;49.142;9.232;2022-10-03T01:12:07;20.70;;;8.70;;
20525;SDS011;10421;49.142;9.232;2022-10-03T01:15:09;15.80;;;8.23;;
20525;SDS011;10421;49.142;9.232;2022-10-03T01:17:46;13.80;;;8.73;;
20525;SDS011;10421;49.142;9.232;2022-10-03T01:20:26;16.50;;;9.10;;
20525;SDS011;10421;49.142;9.232;2022-10-03T01:26:09;16.03;;;8.60;;
20525;SDS011;10421;49.142;9.232;2022-10-03T01:28:50;13.70;;;8.07;;
20525;SDS011;10421;49.142;9.232;2022-10-03T01:31:40;15.30;;;8.30;;
20525;SDS011;10421;49.142;9.232;2022-10-03T01:34:12;14.07;;;7.50;;
20525;SDS011;10421;49.142;9.232;2022-10-03T01:36:51;14.73;;;8.43;;
20525;SDS011;10421;49.142;9.232;2022-10-03T01:39:26;14.73;;;9.20;;
20525;SDS011;10421;49.142;9.232;2022-10-03T01:41:58;14.10;;;8.60;;
20525;SDS011;10421;49.142;9.232;2022-10-03T01:44:35;13.33;;;7.30;;
20525;SDS011;10421;49.142;9.232;2022-10-03T01:47:14;15.10;;;8.27;;
20525;SDS011;10421;49.142;9.232;2022-10-03T01:49:50;11.40;;;7.00;;
20525;SDS011;10421;49.142;9.232;2022-10-03T01:52:23;17.60;;;8.33;;
20525;SDS011;10421;49.142;9.232;2022-10-03T01:55:02;15.30;;;8.37;;
20525;SDS011;10421;49.142;9.232;2022-10-03T01:57:37;19.00;;;10.20;;
20525;SDS011;10421;49.142;9.232;2022-10-03T02:00:12;15.77;;;7.60;;
20525;SDS011;10421;49.142;9.232;2022-10-03T02:02:42;14.60;;;7.30;;
20525;SDS011;10421;49.142;9.232;2022-10-03T02:05:15;21.50;;;8.70;;
20525;SDS011;10421;49.142;9.232;2022-10-03T02:07:48;14.30;;;7.90;;
20525;SDS011;10421;49.142;9.232;2022-10-03T02:10:25;11.53;;;7.50;;
20525;SDS011;10421;49.142;9.232;2022-10-03T02:13:02;12.03;;;6.70;;
20525;SDS011;10421;49.142;9.232;2022-10-03T02:15:39;15.60;;;7.30;;
20525;SDS011;10421;49.142;9.232;2022-10-03T02:18:20;12.47;;;7.33;;
20525;SDS011;10421;49.142;9.232;2022-10-03T02:20:56;18.67;;;8.47;;
20525;SDS011;10421;49.142;9.232;2022-10-03T02:23:36;13.70;;;6.67;;
20525;SDS011;10421;49.142;9.232;2022-10-03T02:26:09;16.87;;;7.70;;
20525;SDS011;10421;49.142;9.232;2022-10-03T02:29:03;13.73;;;7.03;;
20525;SDS011;10421;49.142;9.232;2022-10-03T02:31:57;11.53;;;6.00;;
20525;SDS011;10421;49.142;9.232;2022-10-03T02:34:46;13.30;;;6.70;;
20525;SDS011;10421;49.142;9.232;2022-10-03T02:37:48;11.20;;;6.00;;
20525;SDS011;10421;49.142;9.232;2022-10-03T02:53:41;11.60;;;6.40;;
20525;SDS011;10421;49.142;9.232;2022-10-03T02:56:55;17.33;;;6.80;;
20525;SDS011;10421;49.142;9.232;2022-10-03T02:59:56;11.27;;;6.30;;
20525;SDS011;10421;49.142;9.232;2022-10-03T03:03:00;10.77;;;5.80;;
20525;SDS011;10421;49.142;9.232;2022-10-03T03:12:15;14.10;;;7.40;;
20525;SDS011;10421;49.142;9.232;2022-10-03T03:18:32;16.17;;;7.80;;
20525;SDS011;10421;49.142;9.232;2022-10-03T03:21:05;12.73;;;7.47;;
20525;SDS011;10421;49.142;9.232;2022-10-03T03:23:50;15.93;;;7.33;;
20525;SDS011;10421;49.142;9.232;2022-10-03T03:26:33;12.40;;;7.37;;
20525;SDS011;10421;49.142;9.232;2022-10-03T03:29:28;18.87;;;8.50;;
20525;SDS011;10421;49.142;9.232;2022-10-03T03:32:06;20.20;;;8.67;;
20525;SDS011;10421;49.142;9.232;2022-10-03T03:34:45;14.80;;;7.80;;
20525;SDS011;10421;49.142;9.232;2022-10-03T03:37:21;18.97;;;9.27;;
20525;SDS011;10421;49.142;9.232;2022-10-03T03:39:58;15.63;;;8.70;;
20525;SDS011;10421;49.142;9.232;2022-10-03T03:42:47;18.60;;;9.37;;
20525;SDS011;10421;49.142;9.232;2022-10-03T03:45:44;15.67;;;7.70;;
20525;SDS011;10421;49.142;9.232;2022-10-03T03:48:25;13.90;;;8.13;;
20525;SDS011;10421;49.142;9.232;2022-10-03T03:51:14;13.83;;;8.30;;
20525;SDS011;10421;49.142;9.232;2022-10-03T03:54:02;18.40;;;9.60;;
20525;SDS011;10421;49.142;9.232;2022-10-03T03:56:56;16.90;;;9.17;;
20525;SDS011;10421;49.142;9.232;2022-10-03T03:59:43;16.93;;;9.20;;
20525;SDS011;10421;49.142;9.232;2022-10-03T04:02:22;19.97;;;9.30;;
20525;SDS011;10421;49.142;9.232;2022-10-03T04:05:01;19.33;;;9.57;;
20525;SDS011;10421;49.142;9.232;2022-10-03T04:07:44;15.70;;;9.07;;
20525;SDS011;10421;49.142;9.232;2022-10-03T04:10:23;18.60;;;9.03;;
20525;SDS011;10421;49.142;9.232;2022-10-03T04:13:03;19.07;;;9.57;;
20525;SDS011;10421;49.142;9.232;2022-10-03T04:18:40;16.90;;;8.93;;
20525;SDS011;10421;49.142;9.232;2022-10-03T04:27:44;17.20;;;9.30;;
20525;SDS011;10421;49.142;9.232;2022-10-03T04:30:30;18.23;;;9.53;;
20525;SDS011;10421;49.142;9.232;2022-10-03T04:33:08;16.40;;;9.03;;
20525;SDS011;10421;49.142;9.232;2022-10-03T04:38:48;18.60;;;9.13;;
20525;SDS011;10421;49.142;9.232;2022-10-03T04:41:27;20.30;;;9.40;;
20525;SDS011;10421;49.142;9.232;2022-10-03T04:44:04;19.17;;;9.60;;
20525;SDS011;10421;49.142;9.232;2022-10-03T04:46:41;19.03;;;9.40;;
20525;SDS011;10421;49.142;9.232;2022-10-03T04:49:15;20.07;;;10.70;;
20525;SDS011;10421;49.142;9.232;2022-10-03T04:51:51;20.30;;;10.57;;
20525;SDS011;10421;49.142;9.232;2022-10-03T04:54:26;19.17;;;9.93;;
20525;SDS011;10421;49.142;9.232;2022-10-03T04:57:06;27.23;;;10.50;;
20525;SDS011;10421;49.142;9.232;2022-10-03T04:59:47;21.17;;;9.83;;
20525;SDS011;10421;49.142;9.232;2022-10-03T05:02:29;17.77;;;9.07;;
20525;SDS011;10421;49.142;9.232;2022-10-03T05:05:13;17.50;;;9.20;;
20525;SDS011;10421;49.142;9.232;2022-10-03T05:07:59;18.37;;;9.67;;
20525;SDS011;10421;49.142;9.232;2022-10-03T05:10:47;27.20;;;10.63;;
20525;SDS011;10421;49.142;9.232;2022-10-03T05:13:28;20.63;;;10.27;;
20525;SDS011;10421;49.142;9.232;2022-10-03T05:16:05;20.50;;;10.30;;
20525;SDS011;10421;49.142;9.232;2022-10-03T05:18:42;19.73;;;9.97;;
20525;SDS011;10421;49.142;9.232;2022-10-03T05:21:14;17.13;;;9.20;;
20525;SDS011;10421;49.142;9.232;2022-10-03T05:23:54;19.77;;;10.87;;
20525;SDS011;10421;49.142;9.232;2022-10-03T05:26:30;20.90;;;10.10;;
20525;SDS011;10421;49.142;9.232;2022-10-03T05:29:09;19.90;;;9.50;;
20525;SDS011;10421;49.142;9.232;2022-10-03T05:31:45;17.73;;;9.77;;
20525;SDS011;10421;49.142;9.232;2022-10-03T05:34:19;22.47;;;10.90;;
20525;SDS011;10421;49.142;9.232;2022-10-03T05:37:01;19.43;;;9.50;;
20525;SDS011;10421;49.142;9.232;2022-10-03T05:39:41;20.10;;;9.67;;
20525;SDS011;10421;49.142;9.232;2022-10-03T05:42:22;17.73;;;9.37;;
20525;SDS011;10421;49.142;9.232;2022-10-03T05:45:18;20.03;;;10.10;;
20525;SDS011;10421;49.142;9.232;2022-10-03T05:47:54;22.43;;;10.30;;
20525;SDS011;10421;49.142;9.232;2022-10-03T05:53:58;24.80;;;10.40;;
20525;SDS011;10421;49.142;9.232;2022-10-03T05:57:04;23.63;;;10.50;;
20525;SDS011;10421;49.142;9.232;2022-10-03T06:00:03;20.57;;;10.03;;
20525;SDS011;10421;49.142;9.232;2022-10-03T06:02:41;16.73;;;8.97;;
20525;SDS011;10421;49.142;9.232;2022-10-03T06:05:23;25.40;;;10.43;;
20525;SDS011;10421;49.142;9.232;2022-10-03T06:08:01;22.63;;;8.90;;
20525;SDS011;10421;49.142;9.232;2022-10-03T06:10:46;24.80;;;10.40;;
20525;SDS011;10421;49.142;9.232;2022-10-03T06:13:23;25.37;;;11.17;;
20525;SDS011;10421;49.142;9.232;2022-10-03T06:16:09;21.67;;;9.40;;
20525;SDS011;10421;49.142;9.232;2022-10-03T06:19:04;21.43;;;9.77;;
20525;SDS011;10421;49.142;9.232;2022-10-03T06:34:19;16.60;;;8.70;;
20525;SDS011;10421;49.142;9.232;2022-10-03T06:37:12;19.90;;;9.40;;
20525;SDS011;10421;49.142;9.232;2022-10-03T06:40:20;18.43;;;8.73;;
20525;SDS011;10421;49.142;9.232;2022-10-03T06:49:27;20.50;;;10.00;;
20525;SDS011;10421;49.142;9.232;2022-10-03T06:52:01;25.30;;;11.53;;
20525;SDS011;10421;49.142;9.232;2022-10-03T06:54:52;20.90;;;10.53;;
20525;SDS011;10421;49.142;9.232;2022-10-03T07:00:42;24.63;;;12.33;;
20525;SDS011;10421;49.142;9.232;2022-10-03T07:06:39;22.03;;;10.83;;
20525;SDS011;10421;49.142;9.232;2022-10-03T07:12:44;22.07;;;10.77;;
20525;SDS011;10421;49.142;9.232;2022-10-03T07:15:44;21.47;;;10.27;;
20525;SDS011;10421;49.142;9.232;2022-10-03T07:18:56;22.63;;;10.20;;
20525;SDS011;10421;49.142;9.232;2022-10-03T07:21:45;20.53;;;9.60;;
20525;SDS011;10421;49.142;9.232;2022-10-03T07:27:39;20.57;;;9.57;;
20525;SDS011;10421;49.142;9.232;2022-10-03T07:30:14;23.83;;;10.27;;
20525;SDS011;10421;49.142;9.232;2022-10-03T07:39:15;35.20;;;16.80;;
20525;SDS011;10421;49.142;9.232;2022-10-03T07:42:20;49.67;;;27.87;;
20525;SDS011;10421;49.142;9.232;2022-10-03T07:45:19;38.07;;;18.87;;
20525;SDS011;10421;49.142;9.232;2022-10-03T07:51:22;75.90;;;36.90;;
20525;SDS011;10421;49.142;9.232;2022-10-03T07:57:15;65.43;;;31.87;;
20525;SDS011;10421;49.142;9.232;2022-10-03T08:03:15;26.90;;;13.70;;
20525;SDS011;10421;49.142;9.232;2022-10-03T08:09:12;15.10;;;8.47;;
20525;SDS011;10421;49.142;9.232;2022-10-03T08:15:12;11.40;;;7.10;;
20525;SDS011;10421;49.142;9.232;2022-10-03T08:20:55;14.93;;;8.30;;
20525;SDS011;10421;49.142;9.232;2022-10-03T08:26:18;16.60;;;9.00;;
20525;SDS011;10421;49.142;9.232;2022-10-03T08:29:02;14.60;;;8.50;;
20525;SDS011;10421;49.142;9.232;2022-10-03T08:34:49;16.77;;;8.50;;
20525;SDS011;10421;49.142;9.232;2022-10-03T08:37:33;21.00;;;8.33;;
20525;SDS011;10421;49.142;9.232;2022-10-03T08:46:35;20.00;;;9.03;;
20525;SDS011;10421;49.142;9.232;2022-10-03T08:49:35;15.77;;;7.50;;
20525;SDS011;10421;49.142;9.232;2022-10-03T08:52:23;16.13;;;8.67;;
20525;SDS011;10421;49.142;9.232;2022-10-03T08:55:19;19.50;;;9.10;;
20525;SDS011;10421;49.142;9.232;2022-10-03T09:01:19;20.30;;;7.67;;
20525;SDS011;10421;49.142;9.232;2022-10-03T09:16:16;14.37;;;7.33;;
20525;SDS011;10421;49.142;9.232;2022-10-03T09:22:33;18.57;;;7.53;;
20525;SDS011;10421;49.142;9.232;2022-10-03T09:25:21;14.63;;;6.77;;
20525;SDS011;10421;49.142;9.232;2022-10-03T09:28:09;15.63;;;8.80;;
20525;SDS011;10421;49.142;9.232;2022-10-03T09:31:07;17.50;;;9.07;;
20525;SDS011;10421;49.142;9.232;2022-10-03T09:36:56;13.67;;;8.10;;
20525;SDS011;10421;49.142;9.232;2022-10-03T09:39:56;20.27;;;7.50;;
20525;SDS011;10421;49.142;9.232;2022-10-03T09:42:48;14.43;;;7.20;;
20525;SDS011;10421;49.142;9.232;2022-10-03T09:51:51;16.27;;;7.13;;
20525;SDS011;10421;49.142;9.232;2022-10-03T10:00:24;10.93;;;6.27;;
20525;SDS011;10421;49.142;9.232;2022-10-03T10:06:03;9.73;;;5.93;;
20525;SDS011;10421;49.142;9.232;2022-10-03T10:09:03;9.87;;;5.40;;
20525;SDS011;10421;49.142;9.232;2022-10-03T10:12:09;9.90;;;5.13;;
20525;SDS011;10421;49.142;9.232;2022-10-03T10:15:04;11.37;;;5.20;;
20525;SDS011;10421;49.142;9.232;2022-10-03T10:18:05;9.70;;;5.57;;
20525;SDS011;10421;49.142;9.232;2022-10-03T10:24:11;9.50;;;5.20;;
20525;SDS011;10421;49.142;9.232;2022-10-03T10:35:53;12.63;;;5.20;;
20525;SDS011;10421;49.142;9.232;2022-10-03T10:42:02;8.40;;;4.93;;
20525;SDS011;10421;49.142;9.232;2022-10-03T10:45:12;12.97;;;6.80;;
20525;SDS011;10421;49.142;9.232;2022-10-03T10:48:07;6.93;;;4.50;;
20525;SDS011;10421;49.142;9.232;2022-10-03T10:51:11;10.50;;;5.10;;
20525;SDS011;10421;49.142;9.232;2022-10-03T10:57:09;15.33;;;7.87;;
20525;SDS011;10421;49.142;9.232;2022-10-03T11:00:06;15.93;;;7.87;;
20525;SDS011;10421;49.142;9.232;2022-10-03T11:02:54;12.30;;;5.50;;
20525;SDS011;10421;49.142;9.232;2022-10-03T11:24:24;6.57;;;3.33;;
20525;SDS011;10421;49.142;9.232;2022-10-03T11:27:41;5.90;;;3.33;;
20525;SDS011;10421;49.142;9.232;2022-10-03T11:36:47;5.40;;;3.47;;
20525;SDS011;10421;49.142;9.232;2022-10-03T11:39:27;8.67;;;4.17;;
20525;SDS011;10421;49.142;9.232;2022-10-03T11:42:04;5.10;;;3.27;;
20525;SDS011;10421;49.142;9.232;2022-10-03T11:44:43;7.37;;;4.70;;
20525;SDS011;10421;49.142;9.232;2022-10-03T11:47:21;6.43;;;3.60;;
20525;SDS011;10421;49.142;9.232;2022-10-03T11:50:22;11.43;;;4.87;;
20525;SDS011;10421;49.142;9.232;2022-10-03T11:53:06;18.53;;;10.63;;
20525;SDS011;10421;49.142;9.232;2022-10-03T11:55:40;16.43;;;7.50;;
20525;SDS011;10421;49.142;9.232;2022-10-03T11:58:14;29.87;;;16.00;;
20525;SDS011;10421;49.142;9.232;2022-10-03T12:00:58;15.97;;;9.17;;
20525;SDS011;10421;49.142;9.232;2022-10-03T12:03:52;7.70;;;4.47;;
20525;SDS011;10421;49.142;9.232;2022-10-03T12:09:46;6.40;;;2.97;;
20525;SDS011;10421;49.142;9.232;2022-10-03T12:12:26;6.70;;;3.30;;
20525;SDS011;10421;49.142;9.232;2022-10-03T12:15:03;6.20;;;3.20;;
20525;SDS011;10421;49.142;9.232;2022-10-03T12:17:42;6.20;;;2.50;;
20525;SDS011;10421;49.142;9.232;2022-10-03T12:20:15;9.33;;;3.50;;
20525;SDS011;10421;49.142;9.232;2022-10-03T12:22:44;6.40;;;2.80;;
20525;SDS011;10421;49.142;9.232;2022-10-03T12:25:18;5.63;;;3.20;;
20525;SDS011;10421;49.142;9.232;2022-10-03T12:28:00;6.93;;;3.70;;
20525;SDS011;10421;49.142;9.232;2022-10-03T12:30:36;4.17;;;2.77;;
20525;SDS011;10421;49.142;9.232;2022-10-03T12:33:16;6.30;;;2.80;;
20525;SDS011;10421;49.142;9.232;2022-10-03T12:36:03;7.80;;;3.90;;
20525;SDS011;10421;49.142;9.232;2022-10-03T12:38:39;8.03;;;3.50;;
20525;SDS011;10421;49.142;9.232;2022-10-03T12:41:23;5.93;;;2.87;;
20525;SDS011;10421;49.142;9.232;2022-10-03T12:44:05;9.10;;;3.10;;
20525;SDS011;10421;49.142;9.232;2022-10-03T12:46:43;4.90;;;2.90;;
20525;SDS011;10421;49.142;9.232;2022-10-03T12:49:16;7.37;;;3.50;;
20525;SDS011;10421;49.142;9.232;2022-10-03T12:51:50;5.00;;;2.30;;
20525;SDS011;10421;49.142;9.232;2022-10-03T12:54:26;8.53;;;3.90;;
20525;SDS011;10421;49.142;9.232;2022-10-03T12:57:30;7.63;;;3.10;;
20525;SDS011;10421;49.142;9.232;2022-10-03T13:00:13;7.50;;;3.10;;
20525;SDS011;10421;49.142;9.232;2022-10-03T13:02:46;5.80;;;3.37;;
20525;SDS011;10421;49.142;9.232;2022-10-03T13:05:35;5.27;;;3.33;;
20525;SDS011;10421;49.142;9.232;2022-10-03T13:08:27;4.00;;;2.77;;
20525;SDS011;10421;49.142;9.232;2022-10-03T13:11:08;16.97;;;3.03;;
20525;SDS011;10421;49.142;9.232;2022-10-03T13:13:52;6.03;;;2.33;;
20525;SDS011;10421;49.142;9.232;2022-10-03T13:16:31;6.03;;;2.97;;
20525;SDS011;10421;49.142;9.232;2022-10-03T13:19:03;6.43;;;3.23;;
20525;SDS011;10421;49.142;9.232;2022-10-03T13:21:46;9.17;;;4.20;;
20525;SDS011;10421;49.142;9.232;2022-10-03T13:24:28;7.20;;;3.10;;
20525;SDS011;10421;49.142;9.232;2022-10-03T13:27:01;6.67;;;2.90;;
20525;SDS011;10421;49.142;9.232;2022-10-03T13:29:41;7.00;;;3.70;;
20525;SDS011;10421;49.142;9.232;2022-10-03T13:32:19;6.90;;;3.20;;
20525;SDS011;10421;49.142;9.232;2022-10-03T13:34:56;3.77;;;2.63;;
20525;SDS011;10421;49.142;9.232;2022-10-03T13:41:04;5.10;;;3.10;;
20525;SDS011;10421;49.142;9.232;2022-10-03T13:43:35;10.50;;;4.10;;
20525;SDS011;10421;49.142;9.232;2022-10-03T13:46:05;5.43;;;2.47;;
20525;SDS011;10421;49.142;9.232;2022-10-03T13:48:39;5.67;;;3.13;;
20525;SDS011;10421;49.142;9.232;2022-10-03T13:51:13;3.20;;;2.37;;
20525;SDS011;10421;49.142;9.232;2022-10-03T13:53:51;6.03;;;2.70;;
20525;SDS011;10421;49.142;9.232;2022-10-03T13:59:14;4.57;;;2.50;;
20525;SDS011;10421;49.142;9.232;2022-10-03T14:02:03;4.43;;;2.63;;
20525;SDS011;10421;49.142;9.232;2022-10-03T14:07:39;8.20;;;4.20;;
20525;SDS011;10421;49.142;9.232;2022-10-03T14:13:16;9.70;;;5.10;;
20525;SDS011;10421;49.142;9.232;2022-10-03T14:15:51;21.20;;;10.03;;
20525;SDS011;10421;49.142;9.232;2022-10-03T14:18:30;7.90;;;4.07;;
20525;SDS011;10421;49.142;9.232;2022-10-03T14:21:14;6.30;;;2.73;;
20525;SDS011;10421;49.142;9.232;2022-10-03T14:24:00;5.37;;;2.90;;
20525;SDS011;10421;49.142;9.232;2022-10-03T14:26:37;8.40;;;2.90;;
20525;SDS011;10421;49.142;9.232;2022-10-03T14:29:13;7.73;;;3.53;;
20525;SDS011;10421;49.142;9.232;2022-10-03T14:31:50;5.50;;;2.90;;
20525;SDS011;10421;49.142;9.232;2022-10-03T14:34:26;5.00;;;3.00;;
20525;SDS011;10421;49.142;9.232;2022-10-03T14:37:06;3.70;;;2.20;;
20525;SDS011;10421;49.142;9.232;2022-10-03T14:39:43;8.23;;;4.20;;
20525;SDS011;10421;49.142;9.232;2022-10-03T14:45:20;6.03;;;3.07;;
20525;SDS011;10421;49.142;9.232;2022-10-03T14:47:51;6.27;;;3.43;;
20525;SDS011;10421;49.142;9.232;2022-10-03T14:50:23;7.23;;;2.90;;
20525;SDS011;10421;49.142;9.232;2022-10-03T14:52:55;6.17;;;2.83;;
20525;SDS011;10421;49.142;9.232;2022-10-03T14:55:29;6.13;;;3.30;;
20525;SDS011;10421;49.142;9.232;2022-10-03T14:57:58;3.80;;;2.57;;
20525;SDS011;10421;49.142;9.232;2022-10-03T15:00:35;4.47;;;2.90;;
20525;SDS011;10421;49.142;9.232;2022-10-03T15:03:20;6.83;;;3.40;;
20525;SDS011;10421;49.142;9.232;2022-10-03T15:06:00;5.33;;;2.80;;
20525;SDS011;10421;49.142;9.232;2022-10-03T15:08:44;5.90;;;2.73;;
20525;SDS011;10421;49.142;9.232;2022-10-03T15:11:15;7.70;;;3.23;;
20525;SDS011;10421;49.142;9.232;2022-10-03T15:13:49;5.90;;;3.10;;
20525;SDS011;10421;49.142;9.232;2022-10-03T15:16:20;5.80;;;3.20;;
20525;SDS011;10421;49.142;9.232;2022-10-03T15:18:50;4.63;;;2.83;;
20525;SDS011;10421;49.142;9.232;2022-10-03T15:21:20;4.00;;;2.20;;
20525;SDS011;10421;49.142;9.232;2022-10-03T15:23:54;3.93;;;2.40;;
20525;SDS011;10421;49.142;9.232;2022-10-03T15:26:26;6.27;;;2.73;;
20525;SDS011;10421;49.142;9.232;2022-10-03T15:28:56;5.07;;;2.57;;
20525;SDS011;10421;49.142;9.232;2022-10-03T15:31:31;4.60;;;2.60;;
20525;SDS011;10421;49.142;9.232;2022-10-03T15:34:00;6.03;;;2.70;;
20525;SDS011;10421;49.142;9.232;2022-10-03T15:36:30;6.80;;;3.07;;
20525;SDS011;10421;49.142;9.232;2022-10-03T15:39:03;9.40;;;2.90;;
20525;SDS011;10421;49.142;9.232;2022-10-03T15:41:46;3.33;;;2.00;;
20525;SDS011;10421;49.142;9.232;2022-10-03T15:44:17;8.00;;;3.37;;
20525;SDS011;10421;49.142;9.232;2022-10-03T15:46:48;6.47;;;2.80;;
20525;SDS011;10421;49.142;9.232;2022-10-03T15:49:18;7.40;;;2.60;;
20525;SDS011;10421;49.142;9.232;2022-10-03T15:51:51;6.00;;;3.50;;
20525;SDS011;10421;49.142;9.232;2022-10-03T15:54:21;4.67;;;2.80;;
20525;SDS011;10421;49.142;9.232;2022-10-03T15:56:51;5.13;;;2.70;;
20525;SDS011;10421;49.142;9.232;2022-10-03T15:59:22;7.27;;;3.17;;
20525;SDS011;10421;49.142;9.232;2022-10-03T16:01:53;8.13;;;3.63;;
20525;SDS011;10421;49.142;9.232;2022-10-03T16:04:23;7.70;;;3.30;;
20525;SDS011;10421;49.142;9.232;2022-10-03T16:06:55;7.37;;;2.33;;
20525;SDS011;10421;49.142;9.232;2022-10-03T16:09:30;5.90;;;3.20;;
20525;SDS011;10421;49.142;9.232;2022-10-03T16:12:16;5.23;;;2.30;;
20525;SDS011;10421;49.142;9.232;2022-10-03T16:15:06;4.90;;;2.40;;
20525;SDS011;10421;49.142;9.232;2022-10-03T16:17:45;3.37;;;2.43;;
20525;SDS011;10421;49.142;9.232;2022-10-03T16:20:16;5.60;;;3.27;;
20525;SDS011;10421;49.142;9.232;2022-10-03T16:22:48;4.67;;;2.80;;
20525;SDS011;10421;49.142;9.232;2022-10-03T16:25:19;5.73;;;3.30;;
20525;SDS011;10421;49.142;9.232;2022-10-03T16:27:50;8.93;;;4.17;;
20525;SDS011;10421;49.142;9.232;2022-10-03T16:30:21;6.90;;;3.50;;
20525;SDS011;10421;49.142;9.232;2022-10-03T16:33:03;6.57;;;2.57;;
20525;SDS011;10421;49.142;9.232;2022-10-03T16:35:40;5.10;;;3.20;;
20525;SDS011;10421;49.142;9.232;2022-10-03T16:38:19;7.67;;;4.10;;
20525;SDS011;10421;49.142;9.232;2022-10-03T16:40:51;8.30;;;4.20;;
20525;SDS011;10421;49.142;9.232;2022-10-03T16:43:21;7.50;;;3.80;;
20525;SDS011;10421;49.142;9.232;2022-10-03T16:45:50;7.93;;;4.00;;
20525;SDS011;10421;49.142;9.232;2022-10-03T16:48:19;8.80;;;5.13;;
20525;SDS011;10421;49.142;9.232;2022-10-03T16:51:06;6.57;;;3.90;;
20525;SDS011;10421;49.142;9.232;2022-10-03T16:53:42;8.70;;;3.50;;
20525;SDS011;10421;49.142;9.232;2022-10-03T16:56:13;12.37;;;4.20;;
20525;SDS011;10421;49.142;9.232;2022-10-03T16:58:43;6.00;;;3.40;;
20525;SDS011;10421;49.142;9.232;2022-10-03T17:01:21;73.37;;;42.53;;
20525;SDS011;10421;49.142;9.232;2022-10-03T17:03:54;22.83;;;11.53;;
20525;SDS011;10421;49.142;9.232;2022-10-03T17:06:26;16.80;;;8.20;;
20525;SDS011;10421;49.142;9.232;2022-10-03T17:08:57;8.20;;;4.40;;
20525;SDS011;10421;49.142;9.232;2022-10-03T17:11:31;7.77;;;4.80;;
20525;SDS011;10421;49.142;9.232;2022-10-03T17:14:02;9.53;;;5.47;;
20525;SDS011;10421;49.142;9.232;2022-10-03T17:16:33;9.10;;;4.93;;
20525;SDS011;10421;49.142;9.232;2022-10-03T17:19:15;9.07;;;4.50;;
20525;SDS011;10421;49.142;9.232;2022-10-03T17:21:46;11.00;;;4.57;;
20525;SDS011;10421;49.142;9.232;2022-10-03T17:24:20;9.07;;;4.90;;
20525;SDS011;10421;49.142;9.232;2022-10-03T17:26:55;10.00;;;6.00;;
20525;SDS011;10421;49.142;9.232;2022-10-03T17:29:27;10.10;;;4.73;;
20525;SDS011;10421;49.142;9.232;2022-10-03T17:31:58;9.23;;;5.10;;
20525;SDS011;10421;49.142;9.232;2022-10-03T17:34:28;10.53;;;4.67;;
20525;SDS011;10421;49.142;9.232;2022-10-03T17:37:03;7.90;;;4.60;;
20525;SDS011;10421;49.142;9.232;2022-10-03T17:39:42;6.80;;;4.47;;
20525;SDS011;10421;49.142;9.232;2022-10-03T17:42:29;11.07;;;5.20;;
20525;SDS011;10421;49.142;9.232;2022-10-03T17:45:21;10.50;;;4.67;;
20525;SDS011;10421;49.142;9.232;2022-10-03T17:48:03;5.77;;;4.10;;
20525;SDS011;10421;49.142;9.232;2022-10-03T17:50:37;11.10;;;4.67;;
20525;SDS011;10421;49.142;9.232;2022-10-03T17:53:17;8.83;;;5.40;;
20525;SDS011;10421;49.142;9.232;2022-10-03T17:55:46;10.63;;;5.10;;
20525;SDS011;10421;49.142;9.232;2022-10-03T17:58:21;11.43;;;6.40;;
20525;SDS011;10421;49.142;9.232;2022-10-03T18:00:54;9.60;;;5.20;;
20525;SDS011;10421;49.142;9.232;2022-10-03T18:03:26;10.43;;;5.90;;
20525;SDS011;10421;49.142;9.232;2022-10-03T18:05:58;7.03;;;4.63;;
20525;SDS011;10421;49.142;9.232;2022-10-03T18:08:49;8.40;;;4.00;;
20525;SDS011;10421;49.142;9.232;2022-10-03T18:11:19;6.40;;;4.07;;
20525;SDS011;10421;49.142;9.232;2022-10-03T18:13:50;9.30;;;4.13;;
20525;SDS011;10421;49.142;9.232;2022-10-03T18:16:26;45.63;;;22.33;;
20525;SDS011;10421;49.142;9.232;2022-10-03T18:19:07;19.07;;;11.23;;
20525;SDS011;10421;49.142;9.232;2022-10-03T18:21:50;9.03;;;4.73;;
20525;SDS011;10421;49.142;9.232;2022-10-03T18:30:17;12.87;;;5.47;;
20525;SDS011;10421;49.142;9.232;2022-10-03T18:32:47;8.03;;;4.00;;
20525;SDS011;10421;49.142;9.232;2022-10-03T18:35:16;9.03;;;5.00;;
20525;SDS011;10421;49.142;9.232;2022-10-03T18:37:53;9.30;;;5.27;;
20525;SDS011;10421;49.142;9.232;2022-10-03T18:40:27;11.83;;;5.27;;
20525;SDS011;10421;49.142;9.232;2022-10-03T18:42:56;10.03;;;4.57;;
20525;SDS011;10421;49.142;9.232;2022-10-03T18:45:27;10.57;;;5.43;;
20525;SDS011;10421;49.142;9.232;2022-10-03T18:47:58;10.13;;;5.23;;
20525;SDS011;10421;49.142;9.232;2022-10-03T18:50:33;45.97;;;24.27;;
20525;SDS011;10421;49.142;9.232;2022-10-03T18:53:14;28.43;;;13.87;;
20525;SDS011;10421;49.142;9.232;2022-10-03T18:55:51;8.47;;;5.77;;
20525;SDS011;10421;49.142;9.232;2022-10-03T18:58:23;6.87;;;4.37;;
20525;SDS011;10421;49.142;9.232;2022-10-03T19:00:55;10.27;;;4.90;;
20525;SDS011;10421;49.142;9.232;2022-10-03T19:03:27;7.57;;;3.90;;
20525;SDS011;10421;49.142;9.232;2022-10-03T19:06:02;7.13;;;4.00;;
20525;SDS011;10421;49.142;9.232;2022-10-03T19:08:33;8.40;;;4.80;;
20525;SDS011;10421;49.142;9.232;2022-10-03T19:11:08;4.93;;;3.57;;
20525;SDS011;10421;49.142;9.232;2022-10-03T19:13:44;7.60;;;4.13;;
20525;SDS011;10421;49.142;9.232;2022-10-03T19:16:23;7.83;;;4.07;;
20525;SDS011;10421;49.142;9.232;2022-10-03T19:19:10;7.87;;;4.43;;
20525;SDS011;10421;49.142;9.232;2022-10-03T19:21:43;4.20;;;3.17;;
20525;SDS011;10421;49.142;9.232;2022-10-03T19:24:12;10.77;;;4.67;;
20525;SDS011;10421;49.142;9.232;2022-10-03T19:26:45;7.57;;;3.77;;
20525;SDS011;10421;49.142;9.232;2022-10-03T19:29:18;4.93;;;2.83;;
20525;SDS011;10421;49.142;9.232;2022-10-03T19:31:51;5.30;;;3.10;;
20525;SDS011;10421;49.142;9.232;2022-10-03T19:34:25;7.17;;;3.50;;
20525;SDS011;10421;49.142;9.232;2022-10-03T19:36:57;6.00;;;3.57;;
20525;SDS011;10421;49.142;9.232;2022-10-03T19:39:25;7.07;;;3.73;;
20525;SDS011;10421;49.142;9.232;2022-10-03T19:41:59;6.57;;;3.40;;
20525;SDS011;10421;49.142;9.232;2022-10-03T19:44:47;9.47;;;4.20;;